createdAt,value
2019-04-01T00:03:49.440Z,7.10
2019-04-01T00:08:53.403Z,7.10
2019-04-01T00:13:57.362Z,7.00
2019-04-01T00:19:03.233Z,7.00
2019-04-01T00:24:06.874Z,6.90
2019-04-01T00:29:10.742Z,6.80
2019-04-01T00:34:14.670Z,6.70
2019-04-01T00:39:18.652Z,6.60
2019-04-01T00:44:22.509Z,6.40
2019-04-01T00:49:26.368Z,6.30
2019-04-01T00:54:30.340Z,6.30
2019-04-01T00:59:34.205Z,6.20
2019-04-01T01:04:38.200Z,6.10
2019-04-01T01:09:43.173Z,6.10
2019-04-01T01:14:54.911Z,6.00
2019-04-01T01:19:58.815Z,6.00
2019-04-01T01:25:02.715Z,6.00
2019-04-01T01:30:08.293Z,6.00
2019-04-01T01:35:12.198Z,5.80
2019-04-01T01:40:16.102Z,5.80
2019-04-01T01:45:20.025Z,5.70
2019-04-01T01:50:23.922Z,5.70
2019-04-01T01:55:27.748Z,5.70
2019-04-01T02:00:32.244Z,5.70
2019-04-01T02:05:36.148Z,5.60
2019-04-01T02:10:40.048Z,5.60
2019-04-01T02:15:44.114Z,5.60
2019-04-01T02:20:47.953Z,5.50
2019-04-01T02:25:51.861Z,5.60
2019-04-01T02:30:55.691Z,5.50
2019-04-01T02:35:59.594Z,5.40
2019-04-01T02:41:03.557Z,5.40
2019-04-01T02:46:07.460Z,5.20
2019-04-01T02:51:11.296Z,5.20
2019-04-01T02:56:15.130Z,5.20
2019-04-01T03:01:19.025Z,5.10
2019-04-01T03:06:22.848Z,5.00
2019-04-01T03:11:26.787Z,5.00
2019-04-01T03:16:30.635Z,4.90
2019-04-01T03:21:34.531Z,4.90
2019-04-01T03:26:38.539Z,4.90
2019-04-01T03:31:42.440Z,4.90
2019-04-01T03:36:46.340Z,4.70
2019-04-01T03:41:50.244Z,4.60
2019-04-01T03:46:54.071Z,4.60
2019-04-01T03:51:57.977Z,4.60
2019-04-01T03:57:01.883Z,4.50
2019-04-01T04:02:05.933Z,4.40
2019-04-01T04:07:09.809Z,4.40
2019-04-01T04:12:13.703Z,4.30
2019-04-01T04:17:17.767Z,4.40
2019-04-01T04:22:21.723Z,4.40
2019-04-01T04:27:25.582Z,4.30
2019-04-01T04:32:29.445Z,4.20
2019-04-01T04:37:33.309Z,4.10
2019-04-01T04:42:37.179Z,4.00
2019-04-01T04:47:41.063Z,4.00
2019-04-01T04:52:44.921Z,3.90
2019-04-01T04:57:48.773Z,4.00
2019-04-01T05:02:52.567Z,4.00
2019-04-01T05:07:56.355Z,4.00
2019-04-01T05:13:00.218Z,4.10
2019-04-01T05:18:04.011Z,4.10
2019-04-01T05:23:08.770Z,4.20
2019-04-01T05:28:14.103Z,4.20
2019-04-01T05:33:20.894Z,4.30
2019-04-01T05:38:24.760Z,4.30
2019-04-01T05:43:29.628Z,4.30
2019-04-01T05:48:33.496Z,4.50
2019-04-01T05:53:37.360Z,4.50
2019-04-01T05:58:41.231Z,4.60
2019-04-01T06:03:45.092Z,4.70
2019-04-01T06:08:48.883Z,4.80
2019-04-01T06:13:52.752Z,4.90
2019-04-01T06:18:56.689Z,4.90
2019-04-01T06:24:00.586Z,5.00
2019-04-01T06:29:04.498Z,5.20
2019-04-01T06:34:08.399Z,5.40
2019-04-01T06:39:12.226Z,5.60
2019-04-01T06:44:16.118Z,5.80
2019-04-01T06:49:20.481Z,6.10
2019-04-01T06:54:24.530Z,6.40
2019-04-01T06:59:28.438Z,6.70
2019-04-01T07:04:32.306Z,7.10
2019-04-01T07:09:36.174Z,7.30
2019-04-01T07:14:40.047Z,7.70
2019-04-01T07:19:43.920Z,8.00
2019-04-01T07:24:47.804Z,8.60
2019-04-01T07:29:51.654Z,9.40
2019-04-01T07:34:55.559Z,10.50
2019-04-01T07:39:59.616Z,11.80
2019-04-01T07:45:04.985Z,13.10
2019-04-01T07:50:11.990Z,14.00
2019-04-01T07:55:14.779Z,14.80
2019-04-01T08:00:18.653Z,15.40
2019-04-01T08:05:25.873Z,16.00
2019-04-01T08:10:28.075Z,16.60
2019-04-01T08:15:32.145Z,16.90
2019-04-01T08:20:36.164Z,17.00
2019-04-01T08:25:40.078Z,17.40
2019-04-01T08:30:43.916Z,17.20
2019-04-01T08:35:47.819Z,17.60
2019-04-01T08:40:51.724Z,18.30
2019-04-01T08:45:55.641Z,18.80
2019-04-01T08:50:59.668Z,18.70
2019-04-01T08:56:03.843Z,18.90
2019-04-01T09:01:07.738Z,19.00
2019-04-01T09:06:11.936Z,19.50
2019-04-01T09:11:16.039Z,20.00
2019-04-01T09:16:20.815Z,20.00
2019-04-01T09:21:24.745Z,19.50
2019-04-01T09:26:28.654Z,19.30
2019-04-01T09:31:32.647Z,19.10
2019-04-01T09:36:36.584Z,19.20
2019-04-01T09:41:40.480Z,19.30
2019-04-01T09:46:44.461Z,19.50
2019-04-01T09:51:49.247Z,19.50
2019-04-01T09:56:53.295Z,19.50
2019-04-01T10:01:57.195Z,19.70
2019-04-01T10:07:01.093Z,19.70
2019-04-01T10:12:05.009Z,19.90
2019-04-01T10:17:09.053Z,20.20
2019-04-01T10:22:12.900Z,20.50
2019-04-01T10:27:16.779Z,20.90
2019-04-01T10:32:20.665Z,21.20
2019-04-01T10:37:24.643Z,21.00
2019-04-01T10:42:29.213Z,21.20
2019-04-01T10:47:33.216Z,21.10
2019-04-01T10:52:38.296Z,21.10
2019-04-01T10:57:43.793Z,20.90
2019-04-01T11:02:50.065Z,20.70
2019-04-01T11:07:53.650Z,20.90
2019-04-01T11:12:57.622Z,21.10
2019-04-01T11:18:02.611Z,21.00
2019-04-01T11:23:08.506Z,21.10
2019-04-01T11:28:12.545Z,21.60
2019-04-01T11:33:18.460Z,21.30
2019-04-01T11:38:22.471Z,20.90
2019-04-01T11:43:27.305Z,20.60
2019-04-01T11:48:31.412Z,20.60
2019-04-01T11:53:36.608Z,20.70
2019-04-01T11:58:42.839Z,20.50
2019-04-01T12:03:46.764Z,20.10
2019-04-01T12:08:50.641Z,19.70
2019-04-01T12:13:54.526Z,19.30
2019-04-01T12:18:58.385Z,18.90
2019-04-01T12:24:02.382Z,18.50
2019-04-01T12:29:06.246Z,18.00
2019-04-01T12:34:10.147Z,17.50
2019-04-01T12:39:14.566Z,17.10
2019-04-01T12:44:18.420Z,16.60
2019-04-01T12:49:24.226Z,16.40
2019-04-01T12:54:27.850Z,16.10
2019-04-01T12:59:33.084Z,16.00
2019-04-01T13:04:37.020Z,15.90
2019-04-01T13:09:40.897Z,15.70
2019-04-01T13:14:44.870Z,15.60
2019-04-01T13:19:48.727Z,15.50
2019-04-01T13:24:52.594Z,15.50
2019-04-01T13:29:56.468Z,15.40
2019-04-01T13:35:00.349Z,15.30
2019-04-01T13:40:04.734Z,15.30
2019-04-01T13:45:08.783Z,15.10
2019-04-01T13:50:16.173Z,15.30
2019-04-01T13:55:18.571Z,15.30
2019-04-01T14:00:27.022Z,15.20
2019-04-01T14:05:29.011Z,15.30
2019-04-01T14:10:32.894Z,15.30
2019-04-01T14:15:36.949Z,15.40
2019-04-01T14:20:40.855Z,15.30
2019-04-01T14:25:44.808Z,15.30
2019-04-01T14:30:50.302Z,15.20
2019-04-01T14:35:54.352Z,15.10
2019-04-01T14:40:58.275Z,15.10
2019-04-01T14:46:02.153Z,15.00
2019-04-01T14:51:06.076Z,14.80
2019-04-01T14:56:10.176Z,14.80
2019-04-01T15:01:14.366Z,14.80
2019-04-01T15:06:18.389Z,14.70
2019-04-01T15:11:22.330Z,14.70
2019-04-01T15:16:26.334Z,14.70
2019-04-01T15:21:30.688Z,14.60
2019-04-01T15:26:34.593Z,14.70
2019-04-01T15:31:39.963Z,14.60
2019-04-01T15:36:44.323Z,14.50
2019-04-01T15:41:48.375Z,14.40
2019-04-01T15:46:52.308Z,14.30
2019-04-01T15:51:56.208Z,14.30
2019-04-01T15:57:00.144Z,14.20
2019-04-01T16:02:04.125Z,14.00
2019-04-01T16:07:08.124Z,13.90
2019-04-01T16:12:12.066Z,13.70
2019-04-01T16:17:15.931Z,13.80
2019-04-01T16:22:20.038Z,13.80
2019-04-01T16:27:23.925Z,13.60
2019-04-01T16:32:28.529Z,13.40
2019-04-01T16:37:33.401Z,13.20
2019-04-01T16:42:37.303Z,12.90
2019-04-01T16:47:42.670Z,12.70
2019-04-01T16:52:46.541Z,12.50
2019-04-01T16:57:50.442Z,12.30
2019-04-01T17:02:56.469Z,12.10
2019-04-01T17:08:00.386Z,11.90
2019-04-01T17:13:04.279Z,11.70
2019-04-01T17:18:08.602Z,11.60
2019-04-01T17:23:14.051Z,11.50
2019-04-01T17:28:19.018Z,11.40
2019-04-01T17:33:23.250Z,11.20
2019-04-01T17:38:28.309Z,11.10
2019-04-01T17:43:32.188Z,11.10
2019-04-01T17:48:36.090Z,11.00
2019-04-01T17:53:40.058Z,10.80
2019-04-01T17:58:44.432Z,10.70
2019-04-01T18:03:48.695Z,10.60
2019-04-01T18:08:52.994Z,10.50
2019-04-01T18:13:56.895Z,10.50
2019-04-01T18:19:00.917Z,10.30
2019-04-01T18:24:06.462Z,10.20
2019-04-01T18:29:11.172Z,10.20
2019-04-01T18:34:16.652Z,10.20
2019-04-01T18:39:20.663Z,10.20
2019-04-01T18:44:25.445Z,10.00
2019-04-01T18:49:29.699Z,9.80
2019-04-01T18:54:34.100Z,9.80
2019-04-01T18:59:38.243Z,9.70
2019-04-01T19:04:42.318Z,9.60
2019-04-01T19:09:46.183Z,9.60
2019-04-01T19:14:56.339Z,9.50
2019-04-01T19:20:00.207Z,9.50
2019-04-01T19:25:05.778Z,9.50
2019-04-01T19:30:11.168Z,9.40
2019-04-01T19:35:15.406Z,9.30
2019-04-01T19:40:20.780Z,9.30
2019-04-01T19:45:26.377Z,9.20
2019-04-01T19:50:30.998Z,9.00
2019-04-01T19:55:35.103Z,9.00
2019-04-01T20:00:38.935Z,8.90
2019-04-01T20:05:42.839Z,8.80
2019-04-01T20:10:46.751Z,8.90
2019-04-01T20:15:50.997Z,8.90
2019-04-01T20:20:54.949Z,8.80
2019-04-01T20:25:58.989Z,8.80
2019-04-01T20:31:02.910Z,8.60
2019-04-01T20:36:06.827Z,8.60
2019-04-01T20:41:10.742Z,8.50
2019-04-01T20:46:18.476Z,8.50
2019-04-01T20:51:22.398Z,8.40
2019-04-01T20:56:26.303Z,8.30
2019-04-01T21:01:30.268Z,8.20
2019-04-01T21:06:34.240Z,8.20
2019-04-01T21:11:38.215Z,8.10
2019-04-01T21:16:43.105Z,7.90
2019-04-01T21:21:47.237Z,7.80
2019-04-01T21:26:51.127Z,7.90
2019-04-01T21:31:54.998Z,7.70
2019-04-01T21:36:58.941Z,7.70
2019-04-01T21:42:02.791Z,7.80
2019-04-01T21:47:06.660Z,7.70
2019-04-01T21:52:10.744Z,7.80
2019-04-01T21:57:14.594Z,7.80
2019-04-01T22:02:18.460Z,7.70
2019-04-01T22:07:22.348Z,7.70
2019-04-01T22:12:26.988Z,7.70
2019-04-01T22:17:31.074Z,7.70
2019-04-01T22:22:34.971Z,7.80
2019-04-01T22:27:38.993Z,7.60
2019-04-01T22:32:42.840Z,7.70
2019-04-01T22:37:46.725Z,7.70
2019-04-01T22:42:50.592Z,7.60
2019-04-01T22:47:54.492Z,7.60
2019-04-01T22:52:58.386Z,7.60
2019-04-01T22:58:02.203Z,7.50
2019-04-01T23:03:06.081Z,7.40
2019-04-01T23:08:09.950Z,7.40
2019-04-01T23:13:13.822Z,7.40
2019-04-01T23:18:17.693Z,7.30
2019-04-01T23:23:21.486Z,7.30
2019-04-01T23:28:25.383Z,7.30
2019-04-01T23:33:29.248Z,7.20
2019-04-01T23:38:33.054Z,7.20
2019-04-01T23:43:41.339Z,7.20
2019-04-01T23:48:45.334Z,7.20
2019-04-01T23:53:49.210Z,7.10
2019-04-01T23:58:53.064Z,7.10
